Flight Track Log - Related Links

Times and Time Zones

All times are in EDT time to prevent confusion due to time zone crossing. See the ASH3770 flight status page for this flight to view local times or setup timezone preferences in your user account.

Time Position Orientation Groundspeed Altitude Reporting Facility
EDT Latitude Longitude Course Direction KTS MPH feet Rate Location/Type
Fri 05:17:10 PM 36.9036 -76.1919 360° North 148 170 700  Level Washington Center
Fri 05:18:43 PM 36.9681 -76.1925 360° North 179 206 4,000 2,196 Climbing Washington Center
Fri 05:19:43 PM 36.9739 -76.2756 275° West 162 186 6,300 2,600 Climbing Washington Center
Fri 05:20:43 PM 37.0069 -76.3644 295° West 219 252 9,200 2,678 Climbing Washington Center
Fri 05:21:44 PM 37.0439 -76.4558 297° West 269 310 11,700 2,100 Climbing Washington Center
Fri 05:22:43 PM 37.0950 -76.5736 299° West 322 371 13,400 1,100 Climbing Washington Center
Fri 05:23:44 PM 37.1419 -76.6836 298° West 349 402 13,900 303 Climbing Washington Center
Fri 05:24:42 PM 37.1869 -76.7858 299° West 342 394 14,000 50 Climbing Washington Center
Fri 05:25:43 PM 37.2297 -76.8856 298° West 337 388 14,000  Level Washington Center
Fri 05:26:43 PM 37.2683 -76.9778 298° West 331 381 14,000  Level Washington Center
Fri 05:27:43 PM 37.3150 -77.0881 298° West 331 381 14,000  Level Washington Center
Fri 05:28:44 PM 37.3683 -77.1650 311° West 331 381 14,000  Level Washington Center
Fri 05:29:42 PM 37.4361 -77.2447 317° Northwest 331 381 14,000  Level Washington Center
Fri 05:30:42 PM 37.5058 -77.3197 320° Northwest 331 381 14,000  Level Washington Center
Fri 05:31:42 PM 37.5947 -77.3742 334° Northwest 336 387 14,000  Level Washington Center
Fri 05:32:43 PM 37.6817 -77.4233 336° Northwest 341 392 14,000  Level Washington Center
Fri 05:33:44 PM 37.7728 -77.4728 337° Northwest 346 398 14,000 -150 Level Washington Center
Fri 05:34:43 PM 37.8658 -77.5250 336° Northwest 356 410 13,700 -908 Descending Washington Center
Fri 05:35:43 PM 37.9483 -77.5694 337° Northwest 349 402 12,200 -1,500 Descending Washington Center
Fri 05:36:43 PM 38.0325 -77.5347 18° North 302 348 10,700 -1,140 Descending Washington Center
Fri 05:37:44 PM 38.1103 -77.4919 23° Northeast 290 334 9,900 -353 Descending Washington Center
Fri 05:38:42 PM 38.1861 -77.4436 27° Northeast 297 342 10,000 -403 Climbing Washington Center
Fri 05:39:43 PM 38.2661 -77.3981 24° Northeast 302 348 9,100 -1,250 Descending Washington Center
Fri 05:40:42 PM 38.3417 -77.3575 23° Northeast 302 348 7,500 -1,500 Descending Washington Center
Fri 05:41:43 PM 38.4231 -77.3594 359° North 288 331 6,100 -1,475 Descending Washington Center
Fri 05:42:44 PM 38.5042 -77.3639 358° North 280 322 4,500 -1,041 Descending Washington Center
Fri 05:43:44 PM 38.5814 -77.3683 357° North 275 316 4,000 -273 Descending Washington Center
Fri 05:44:34 PM 38.6667 -77.3667 North 285 328 4,000  Level Potomac TRACON
Fri 05:45:34 PM 38.7333 -77.3667 360° North 286 329 4,000  Level Potomac TRACON
Fri 05:46:35 PM 38.8167 -77.3500 North 287 330 4,000 -365 Level Potomac TRACON
Fri 05:47:29 PM 38.9000 -77.3500 360° North 285 328 3,300 -842 Descending Potomac TRACON
Fri 05:48:29 PM 38.9667 -77.3500 360° North 254 292 2,400 -650 Descending Potomac TRACON
Fri 05:49:29 PM 39.0333 -77.3500 360° North 235 270 2,000 -248 Descending Potomac TRACON
Fri 05:50:30 PM 39.0500 -77.4167 288° West 212 244 1,900 -98 Descending Potomac TRACON

Login

Don't have an account? Register now (free) for customized features, flight alerts, and more!